Time;durP1;ratioP1;P1;durP2;ratioP2;P2;SDS_P1;SDS_P2;PMS_P1;PMS_P2;Temp;Humidity;BMP_temperature;BMP_pressure;BME280_temperature;BME280_humidity;BME280_pressure;Samples;Min_cycle;Max_cycle;Signal;HPM_P1;HPM_P2
2023/09/20 00:00:33;;;;;;;15.15;5.50;;;16.00;99.90;;;;;;4959693;28;20055;-72
2023/09/20 00:03:00;;;;;;;16.05;5.32;;;16.00;99.90;;;;;;4901838;28;151966;-72
2023/09/20 00:05:26;;;;;;;15.15;5.55;;;16.10;99.90;;;;;;4934768;28;20058;-71
2023/09/20 00:07:56;;;;;;;12.65;5.28;;;16.00;99.90;;;;;;4935613;28;20059;-71
2023/09/20 00:10:22;;;;;;;15.68;5.18;;;16.00;99.90;;;;;;4921050;29;20430;-72
2023/09/20 00:12:48;;;;;;;15.18;4.97;;;16.10;99.90;;;;;;4909682;28;20055;-72
2023/09/20 00:15:15;;;;;;;16.67;5.10;;;16.00;99.90;;;;;;4944964;28;20588;-73
2023/09/20 00:17:41;;;;;;;18.00;5.00;;;16.10;99.90;;;;;;4919791;28;20066;-73
2023/09/20 00:20:16;;;;;;;16.10;5.03;;;16.10;99.90;;;;;;4936420;28;81606;-71
2023/09/20 00:22:44;;;;;;;14.02;4.88;;;16.20;99.90;;;;;;4910025;28;20051;-73
2023/09/20 00:25:12;;;;;;;15.55;5.63;;;16.20;99.90;;;;;;4954340;28;20064;-72
2023/09/20 00:27:40;;;;;;;15.90;5.18;;;16.20;99.90;;;;;;4916146;28;20086;-72
2023/09/20 00:30:10;;;;;;;18.38;5.15;;;16.20;99.90;;;;;;4905177;28;176153;-73
2023/09/20 00:32:42;;;;;;;19.33;5.00;;;16.20;99.90;;;;;;4924094;28;20063;-72
2023/09/20 00:35:13;;;;;;;17.38;4.68;;;16.20;99.90;;;;;;4935467;28;71111;-73
2023/09/20 00:37:40;;;;;;;15.52;4.40;;;16.20;99.90;;;;;;4918926;28;20059;-73
2023/09/20 00:40:23;;;;;;;16.80;4.70;;;16.30;99.90;;;;;;4932755;28;95427;-71
2023/09/20 00:42:50;;;;;;;13.80;4.43;;;16.30;99.90;;;;;;4917420;28;20055;-72
2023/09/20 00:45:19;;;;;;;16.75;4.57;;;16.30;99.90;;;;;;4926817;28;38798;-72
2023/09/20 00:47:51;;;;;;;16.70;4.70;;;16.30;99.90;;;;;;4934333;28;20047;-72
2023/09/20 00:50:18;;;;;;;15.48;4.50;;;16.40;99.90;;;;;;4911980;28;174358;-73
2023/09/20 00:52:51;;;;;;;17.33;4.15;;;16.40;99.90;;;;;;4920222;28;20047;-74
2023/09/20 00:55:24;;;;;;;20.90;4.38;;;16.40;99.90;;;;;;4933371;28;118787;-73
2023/09/20 00:57:53;;;;;;;19.15;4.47;;;16.40;99.90;;;;;;4915384;28;21588;-73
2023/09/20 01:00:29;;;;;;;16.63;3.45;;;16.40;99.90;;;;;;4927016;28;264213;-73
2023/09/20 01:02:57;;;;;;;17.42;4.25;;;16.40;99.90;;;;;;4906774;28;236756;-72
2023/09/20 01:05:36;;;;;;;18.20;4.22;;;16.40;99.90;;;;;;4944398;28;20414;-72
2023/09/20 01:08:04;;;;;;;19.90;4.57;;;16.40;99.90;;;;;;4919434;28;49384;-72
2023/09/20 01:10:36;;;;;;;16.67;4.47;;;16.40;99.90;;;;;;4942362;28;20051;-73
2023/09/20 01:13:04;;;;;;;17.08;4.00;;;16.50;99.90;;;;;;4906353;28;160597;-72
2023/09/20 01:15:35;;;;;;;17.77;4.20;;;16.50;99.90;;;;;;4958376;28;20066;-72
2023/09/20 01:18:04;;;;;;;;;;;16.50;99.90;;;;;;4906839;28;133863;-73
2023/09/20 01:20:32;;;;;;;18.48;4.70;;;16.50;99.90;;;;;;4944051;28;19918;-73
2023/09/20 01:22:59;;;;;;;15.90;4.05;;;16.60;99.90;;;;;;4888829;28;63763;-71
2023/09/20 01:25:26;;;;;;;17.20;4.45;;;16.60;99.90;;;;;;4951878;28;20070;-74
2023/09/20 01:27:57;;;;;;;17.60;4.13;;;16.60;99.90;;;;;;4933520;28;20056;-71
2023/09/20 01:30:28;;;;;;;17.08;4.00;;;16.60;99.90;;;;;;4926307;28;20046;-71
2023/09/20 01:32:55;;;;;;;;;;;16.60;99.90;;;;;;4923793;28;20270;-70
2023/09/20 01:35:22;;;;;;;14.82;3.65;;;16.60;99.90;;;;;;4944944;28;19941;-72
2023/09/20 01:37:51;;;;;;;17.90;3.92;;;16.60;99.90;;;;;;4917226;28;20051;-74
2023/09/20 01:40:19;;;;;;;13.07;3.92;;;16.60;99.90;;;;;;4917755;28;150062;-71
2023/09/20 01:42:47;;;;;;;20.38;4.30;;;16.70;99.90;;;;;;4918531;28;20061;-69
2023/09/20 01:45:16;;;;;;;13.38;3.70;;;16.70;99.90;;;;;;4933581;28;135310;-72
2023/09/20 01:47:47;;;;;;;19.10;4.35;;;16.70;99.90;;;;;;4918251;28;20046;-71
2023/09/20 01:50:19;;;;;;;21.08;3.75;;;16.70;99.90;;;;;;4945218;28;20054;-71
2023/09/20 01:52:51;;;;;;;16.25;3.63;;;16.70;99.90;;;;;;4918710;28;20051;-71
2023/09/20 01:55:20;;;;;;;16.40;3.55;;;16.60;99.90;;;;;;4908136;28;209857;-71
2023/09/20 01:57:48;;;;;;;15.10;3.53;;;16.70;99.90;;;;;;4904593;28;193166;-72
2023/09/20 02:00:22;;;;;;;16.10;3.28;;;16.70;99.90;;;;;;4955101;28;20057;-71
2023/09/20 02:02:50;;;;;;;15.85;3.85;;;16.70;99.90;;;;;;4909511;28;20051;-71
2023/09/20 02:05:17;;;;;;;13.82;3.20;;;16.70;99.90;;;;;;4956058;28;20055;-72
2023/09/20 02:07:48;;;;;;;14.90;3.50;;;16.70;99.90;;;;;;4911491;28;20403;-73
2023/09/20 02:10:16;;;;;;;13.65;3.42;;;16.70;99.90;;;;;;4931705;28;20059;-70
2023/09/20 02:12:53;;;;;;;13.93;3.60;;;16.70;99.90;;;;;;4923595;28;20063;-71
2023/09/20 02:15:21;;;;;;;14.48;3.53;;;16.70;99.90;;;;;;4914674;28;20055;-74
2023/09/20 02:17:47;;;;;;;15.82;3.50;;;16.70;99.90;;;;;;4905005;28;20099;-71
2023/09/20 02:20:30;;;;;;;15.98;3.58;;;16.80;99.90;;;;;;4946987;28;20059;-74
2023/09/20 02:22:57;;;;;;;13.63;3.38;;;16.80;99.90;;;;;;4905066;28;20580;-72
2023/09/20 02:25:26;;;;;;;13.30;3.60;;;16.80;99.90;;;;;;4940727;28;20059;-72
2023/09/20 02:27:58;;;;;;;15.95;3.20;;;16.80;99.90;;;;;;4907503;28;20059;-72
2023/09/20 02:30:28;;;;;;;12.63;3.35;;;16.80;99.90;;;;;;4930484;28;20074;-73
2023/09/20 02:32:59;;;;;;;15.32;3.17;;;16.80;99.90;;;;;;4910325;28;20072;-71
2023/09/20 02:35:27;;;;;;;14.10;3.45;;;16.80;99.90;;;;;;4959127;28;20058;-73
2023/09/20 02:37:54;;;;;;;13.40;3.30;;;16.80;99.90;;;;;;4904372;28;20490;-72
2023/09/20 02:40:24;;;;;;;14.15;3.22;;;16.90;99.90;;;;;;4943979;28;20055;-71
2023/09/20 02:42:52;;;;;;;14.10;3.22;;;16.90;99.90;;;;;;4905310;28;20059;-70
2023/09/20 02:45:19;;;;;;;13.85;3.28;;;16.90;99.90;;;;;;4944715;28;20051;-69
2023/09/20 02:47:49;;;;;;;12.80;3.13;;;16.90;99.90;;;;;;4906307;28;20074;-70
2023/09/20 02:50:22;;;;;;;13.02;3.33;;;16.90;99.90;;;;;;4945876;28;20070;-70
2023/09/20 02:52:49;;;;;;;11.88;3.72;;;16.80;99.90;;;;;;4891227;28;215399;-73
2023/09/20 02:55:17;;;;;;;14.57;3.30;;;16.90;99.90;;;;;;4944160;28;20692;-71
2023/09/20 02:57:49;;;;;;;14.25;3.95;;;16.90;99.90;;;;;;4905859;28;20422;-70
2023/09/20 03:00:18;;;;;;;13.15;3.70;;;16.90;99.90;;;;;;4959998;28;20055;-73
2023/09/20 03:02:46;;;;;;;11.88;3.60;;;16.90;99.90;;;;;;4910308;28;20804;-72
2023/09/20 03:05:17;;;;;;;11.77;3.70;;;16.90;99.90;;;;;;4955548;28;20051;-70
2023/09/20 03:07:47;;;;;;;12.73;3.33;;;16.90;99.90;;;;;;4908006;28;20051;-71
2023/09/20 03:10:15;;;;;;;16.45;3.45;;;16.90;99.90;;;;;;4941731;28;20059;-71
2023/09/20 03:12:46;;;;;;;14.05;3.22;;;16.90;99.90;;;;;;4908707;28;20050;-70
2023/09/20 03:15:17;;;;;;;13.60;3.70;;;17.00;99.90;;;;;;4955542;28;20043;-71
2023/09/20 03:17:48;;;;;;;15.23;3.35;;;16.90;99.90;;;;;;4905751;28;20056;-70
2023/09/20 03:20:22;;;;;;;17.75;3.85;;;16.90;99.90;;;;;;4954036;28;20047;-70
2023/09/20 03:22:52;;;;;;;12.63;3.50;;;16.90;99.90;;;;;;4907340;28;20060;-69
2023/09/20 03:25:19;;;;;;;16.02;3.22;;;16.80;99.90;;;;;;4955985;28;20603;-71
2023/09/20 03:27:46;;;;;;;15.10;3.35;;;16.80;99.90;;;;;;4905480;28;20048;-71
2023/09/20 03:30:13;;;;;;;14.40;3.38;;;16.80;99.90;;;;;;4916186;28;20047;-68
2023/09/20 03:32:42;;;;;;;12.50;3.40;;;16.80;99.90;;;;;;4908029;28;20051;-71
2023/09/20 03:35:10;;;;;;;13.38;3.65;;;16.80;99.90;;;;;;4929275;29;20051;-72
2023/09/20 03:37:37;;;;;;;13.73;3.42;;;16.80;99.90;;;;;;4919844;28;20225;-69
2023/09/20 03:40:10;;;;;;;15.80;3.60;;;16.80;99.90;;;;;;4920438;28;20062;-72
2023/09/20 03:42:40;;;;;;;15.75;3.60;;;16.80;99.90;;;;;;4929303;28;20055;-72
2023/09/20 03:45:10;;;;;;;17.42;3.60;;;16.80;99.90;;;;;;4931114;28;20059;-70
2023/09/20 03:47:54;;;;;;;16.92;3.63;;;16.80;99.90;;;;;;4918720;28;20059;-71
2023/09/20 03:50:21;;;;;;;13.18;3.45;;;16.80;99.90;;;;;;4916727;28;20414;-70
2023/09/20 03:52:47;;;;;;;13.70;3.15;;;16.80;99.90;;;;;;4888028;28;231064;-72
2023/09/20 03:55:14;;;;;;;17.00;3.60;;;16.70;99.90;;;;;;4954464;28;20062;-72
2023/09/20 03:57:40;;;;;;;14.75;3.65;;;16.70;99.90;;;;;;4902512;28;20051;-70
2023/09/20 04:00:11;;;;;;;15.50;3.50;;;16.70;99.90;;;;;;4944746;28;20062;-72
2023/09/20 04:02:38;;;;;;;14.57;3.55;;;16.70;99.90;;;;;;4921966;28;20059;-72
2023/09/20 04:05:13;;;;;;;18.05;3.72;;;16.60;99.90;;;;;;4932711;28;20039;-70
2023/09/20 04:07:40;;;;;;;16.35;3.60;;;16.60;99.90;;;;;;4910302;28;20055;-71
2023/09/20 04:10:07;;;;;;;17.38;3.40;;;16.60;99.90;;;;;;4958510;28;20430;-69
2023/09/20 04:12:35;;;;;;;15.13;3.72;;;16.50;99.90;;;;;;4936125;28;20044;-70
2023/09/20 04:15:04;;;;;;;11.18;3.22;;;16.50;99.90;;;;;;4917866;28;262248;-70
2023/09/20 04:17:32;;;;;;;15.20;4.15;;;16.40;99.90;;;;;;4947056;28;20047;-72
2023/09/20 04:20:00;;;;;;;19.20;3.88;;;16.40;99.90;;;;;;4905113;28;20047;-72
2023/09/20 04:22:27;;;;;;;15.98;3.53;;;16.40;99.90;;;;;;4944867;28;20051;-71
2023/09/20 04:24:53;;;;;;;12.48;3.15;;;16.30;99.90;;;;;;4920373;28;20779;-72
2023/09/20 04:27:21;;;;;;;13.15;3.53;;;16.30;99.90;;;;;;4944976;28;20058;-71
2023/09/20 04:29:47;;;;;;;16.50;3.90;;;16.20;99.90;;;;;;4907138;28;20039;-69
2023/09/20 04:32:13;;;;;;;14.95;3.72;;;16.20;99.90;;;;;;4944846;28;20054;-70
2023/09/20 04:34:39;;;;;;;14.35;3.60;;;16.20;99.90;;;;;;4922447;28;20051;-71
2023/09/20 04:37:06;;;;;;;14.48;3.40;;;16.20;99.90;;;;;;4943241;28;20070;-71
2023/09/20 04:39:32;;;;;;;17.23;3.83;;;16.20;99.90;;;;;;4905772;28;20066;-70
2023/09/20 04:41:58;;;;;;;19.52;3.80;;;16.20;99.90;;;;;;4943933;28;20125;-70
2023/09/20 04:44:24;;;;;;;19.23;3.92;;;16.10;99.90;;;;;;4919444;28;20055;-70
2023/09/20 04:46:50;;;;;;;15.57;3.78;;;16.10;99.90;;;;;;4943829;28;20399;-70
2023/09/20 04:49:19;;;;;;;14.90;3.80;;;16.00;99.90;;;;;;4920638;28;20035;-70
2023/09/20 04:51:46;;;;;;;15.80;3.45;;;16.10;99.90;;;;;;4945983;28;20055;-71
2023/09/20 04:54:12;;;;;;;13.48;3.28;;;16.00;99.90;;;;;;4898713;28;80555;-70
2023/09/20 04:56:40;;;;;;;15.07;3.50;;;16.00;99.90;;;;;;4940710;28;20063;-70
2023/09/20 04:59:08;;;;;;;14.90;3.15;;;16.10;99.90;;;;;;4889279;28;20062;-71
2023/09/20 05:01:34;;;;;;;17.95;3.78;;;16.10;99.90;;;;;;4946554;28;20066;-70
2023/09/20 05:04:00;;;;;;;14.30;3.50;;;16.00;99.90;;;;;;4912915;28;20549;-68
2023/09/20 05:06:26;;;;;;;16.80;3.38;;;16.00;99.90;;;;;;4942153;28;20044;-70
2023/09/20 05:08:53;;;;;;;15.38;3.55;;;16.00;99.90;;;;;;4917570;28;20051;-68
2023/09/20 05:11:19;;;;;;;14.93;3.30;;;16.00;99.90;;;;;;4949492;28;20455;-71
2023/09/20 05:13:45;;;;;;;12.90;3.53;;;16.00;99.90;;;;;;4907834;28;20043;-70
2023/09/20 05:16:11;;;;;;;15.95;3.60;;;16.00;99.90;;;;;;4951591;28;20441;-71
2023/09/20 05:18:37;;;;;;;16.88;3.78;;;16.00;99.90;;;;;;4897614;28;20047;-70
2023/09/20 05:21:03;;;;;;;12.65;3.13;;;16.00;99.90;;;;;;4944304;28;20063;-70
2023/09/20 05:23:30;;;;;;;15.68;3.63;;;16.00;99.90;;;;;;4901149;28;20047;-70
2023/09/20 05:25:56;;;;;;;13.38;3.58;;;16.00;99.90;;;;;;4945475;28;20055;-70
2023/09/20 05:28:23;;;;;;;15.32;3.55;;;16.00;99.90;;;;;;4913464;28;20089;-71
2023/09/20 05:30:49;;;;;;;15.27;3.45;;;16.00;99.90;;;;;;4944477;28;20080;-70
2023/09/20 05:33:16;;;;;;;15.48;3.28;;;16.10;99.90;;;;;;4904911;28;20062;-69
2023/09/20 05:35:43;;;;;;;15.52;3.90;;;16.10;99.90;;;;;;4946910;28;22072;-71
2023/09/20 05:38:10;;;;;;;14.50;3.20;;;16.10;99.90;;;;;;4907491;28;20422;-70
2023/09/20 05:40:37;;;;;;;14.77;3.40;;;16.10;99.90;;;;;;4958472;28;20528;-71
2023/09/20 05:43:06;;;;;;;16.05;3.63;;;16.10;99.90;;;;;;4906426;28;20430;-70
2023/09/20 05:45:36;;;;;;;15.02;3.67;;;16.10;99.90;;;;;;4934516;28;20070;-71
2023/09/20 05:48:02;;;;;;;13.82;3.45;;;16.10;99.90;;;;;;4907558;28;20054;-69
2023/09/20 05:50:35;;;;;;;13.75;3.25;;;16.20;99.90;;;;;;4931077;28;20069;-70
2023/09/20 05:53:06;;;;;;;12.63;3.25;;;16.10;99.90;;;;;;4892441;28;207141;-71
2023/09/20 05:55:35;;;;;;;;;;;16.10;99.90;;;;;;4954862;28;20062;-70
2023/09/20 05:58:02;;;;;;;10.82;3.08;;;16.10;99.90;;;;;;4905824;28;20413;-69
2023/09/20 06:00:29;;;;;;;14.95;3.40;;;16.10;99.90;;;;;;4940469;28;20074;-70
2023/09/20 06:02:59;;;;;;;13.43;3.30;;;16.10;99.90;;;;;;4905870;28;20097;-69
2023/09/20 06:05:26;;;;;;;14.75;3.33;;;16.20;99.90;;;;;;4940509;28;20657;-69
2023/09/20 06:07:56;;;;;;;12.32;3.28;;;16.20;99.90;;;;;;4911296;28;20522;-72
2023/09/20 06:10:22;;;;;;;13.93;3.38;;;16.20;99.90;;;;;;4942645;28;20050;-70
2023/09/20 06:12:52;;;;;;;13.10;3.15;;;16.20;99.90;;;;;;4907852;28;20062;-70
2023/09/20 06:15:19;;;;;;;11.23;2.88;;;16.20;99.90;;;;;;4942271;28;20522;-72
2023/09/20 06:17:48;;;;;;;12.63;3.10;;;16.20;99.90;;;;;;4921991;28;20062;-73
2023/09/20 06:20:24;;;;;;;13.00;3.30;;;16.20;99.90;;;;;;4928138;28;20081;-73
2023/09/20 06:22:51;;;;;;;10.82;2.75;;;16.20;99.90;;;;;;4906010;28;20059;-72
2023/09/20 06:25:22;;;;;;;15.98;2.70;;;16.20;99.90;;;;;;4942201;28;20066;-72
2023/09/20 06:27:53;;;;;;;13.15;3.22;;;16.20;99.90;;;;;;4908934;28;20047;-72
2023/09/20 06:30:21;;;;;;;10.73;3.00;;;16.20;99.90;;;;;;4932128;28;20066;-71
2023/09/20 06:32:48;;;;;;;10.93;3.00;;;16.20;99.90;;;;;;4911248;28;20054;-74
2023/09/20 06:35:22;;;;;;;13.18;3.00;;;16.30;99.90;;;;;;4957218;28;20144;-72
2023/09/20 06:37:48;;;;;;;12.25;2.67;;;16.30;99.90;;;;;;4905522;28;20052;-72
2023/09/20 06:40:26;;;;;;;12.73;3.20;;;16.30;99.90;;;;;;4938843;28;20050;-72
2023/09/20 06:42:52;;;;;;;14.85;3.22;;;16.30;99.90;;;;;;4907443;28;20055;-72
2023/09/20 06:45:19;;;;;;;14.13;3.38;;;16.30;99.90;;;;;;4951528;28;20067;-72
2023/09/20 06:47:46;;;;;;;12.63;2.70;;;16.30;99.90;;;;;;4905187;28;20058;-72
2023/09/20 06:50:15;;;;;;;11.43;2.83;;;16.30;99.90;;;;;;4926898;28;20047;-72
2023/09/20 06:52:42;;;;;;;13.15;3.13;;;16.40;99.90;;;;;;4911116;28;32481;-72
2023/09/20 06:55:11;;;;;;;11.63;3.25;;;16.50;99.90;;;;;;4942194;28;20039;-71
2023/09/20 06:57:38;;;;;;;12.07;3.10;;;16.50;99.90;;;;;;4914813;28;20069;-72
2023/09/20 07:00:05;;;;;;;11.23;2.83;;;16.50;99.90;;;;;;4937406;28;20082;-71
2023/09/20 07:02:31;;;;;;;14.73;2.90;;;16.50;99.90;;;;;;4940946;28;20066;-71
2023/09/20 07:04:57;;;;;;;12.70;3.08;;;16.50;99.90;;;;;;4903820;28;20046;-71
2023/09/20 07:07:25;;;;;;;12.77;3.17;;;16.60;99.90;;;;;;4947573;28;20078;-72
2023/09/20 07:09:51;;;;;;;13.05;3.15;;;16.60;99.90;;;;;;4892482;28;20055;-72
2023/09/20 07:12:17;;;;;;;10.98;2.78;;;16.60;99.90;;;;;;4947348;28;20191;-72
2023/09/20 07:14:43;;;;;;;13.90;3.40;;;16.60;99.90;;;;;;4907027;28;20059;-70
2023/09/20 07:17:09;;;;;;;13.68;3.30;;;16.60;99.90;;;;;;4942977;28;20043;-74
2023/09/20 07:19:36;;;;;;;11.75;3.13;;;16.70;99.90;;;;;;4943910;28;20150;-72
2023/09/20 07:22:05;;;;;;;10.98;3.05;;;16.70;99.90;;;;;;4949388;28;20418;-72
2023/09/20 07:24:32;;;;;;;14.43;3.45;;;16.70;99.90;;;;;;4909906;28;20043;-71
2023/09/20 07:26:58;;;;;;;11.80;3.70;;;16.80;99.90;;;;;;4946478;28;20059;-72
2023/09/20 07:29:25;;;;;;;11.57;3.15;;;16.90;99.90;;;;;;4920175;28;20433;-72
2023/09/20 07:31:52;;;;;;;15.07;3.47;;;17.10;99.90;;;;;;4947649;28;20043;-71
2023/09/20 07:34:23;;;;;;;11.40;3.03;;;17.20;99.90;;;;;;4909829;28;20057;-73
2023/09/20 07:36:53;;;;;;;12.30;3.25;;;17.40;99.90;;;;;;4951915;28;20411;-71
2023/09/20 07:39:21;;;;;;;12.70;2.88;;;17.80;99.90;;;;;;4908996;28;20461;-72
2023/09/20 07:41:51;;;;;;;12.55;3.13;;;18.40;99.90;;;;;;4949097;28;21883;-71
2023/09/20 07:44:17;;;;;;;12.40;3.13;;;18.60;99.90;;;;;;4908533;28;20061;-72
2023/09/20 07:46:44;;;;;;;11.60;2.92;;;18.50;99.90;;;;;;4953197;28;21463;-70
2023/09/20 07:49:10;;;;;;;12.38;3.35;;;18.40;99.90;;;;;;4919301;28;20043;-73
2023/09/20 07:51:37;;;;;;;12.60;3.13;;;18.20;99.90;;;;;;4951728;28;20067;-72
2023/09/20 07:54:06;;;;;;;13.35;3.28;;;18.00;99.90;;;;;;4903899;28;204561;-72
2023/09/20 07:56:34;;;;;;;13.40;3.40;;;17.90;99.90;;;;;;4951286;28;21641;-72
2023/09/20 07:59:01;;;;;;;13.40;3.33;;;17.80;99.90;;;;;;4899767;28;20047;-72
2023/09/20 08:01:29;;;;;;;11.05;3.10;;;17.80;99.90;;;;;;4939146;28;21066;-72
2023/09/20 08:03:58;;;;;;;10.98;3.17;;;17.70;99.90;;;;;;4916011;28;20067;-72
2023/09/20 08:06:26;;;;;;;10.57;2.70;;;17.60;99.90;;;;;;4949818;28;20055;-73
2023/09/20 08:08:52;;;;;;;12.15;2.78;;;17.60;99.90;;;;;;4922956;28;20058;-75
2023/09/20 08:11:18;;;;;;;13.55;3.15;;;17.50;99.90;;;;;;4949429;28;20055;-74
2023/09/20 08:13:44;;;;;;;14.85;3.60;;;17.50;99.90;;;;;;4919197;28;20054;-72
2023/09/20 08:16:12;;;;;;;11.23;3.15;;;17.50;99.90;;;;;;4950182;28;20517;-74
2023/09/20 08:21:29;;;;;;;12.93;3.22;;;17.40;99.90;;;;;;4943755;28;20051;-73
2023/09/20 09:00:27;;;;;;;11.20;3.03;;;18.00;99.90;;;;;;4891353;28;20043;-74
2023/09/20 09:02:56;;;;;;;13.13;3.40;;;18.10;99.90;;;;;;4893861;28;20538;-72
2023/09/20 09:05:29;;;;;;;11.88;3.60;;;18.00;99.90;;;;;;4923359;28;20051;-72
2023/09/20 09:07:57;;;;;;;11.50;3.17;;;18.00;99.90;;;;;;4903491;28;217949;-74
2023/09/20 09:10:23;;;;;;;10.00;2.92;;;18.00;99.90;;;;;;4959753;28;20055;-73
2023/09/20 09:12:50;;;;;;;9.68;3.33;;;18.00;99.90;;;;;;4910545;28;20054;-72
2023/09/20 09:15:16;;;;;;;12.23;3.40;;;18.10;99.90;;;;;;4960108;28;20066;-72
2023/09/20 09:17:44;;;;;;;13.02;3.00;;;18.20;99.90;;;;;;4904133;28;191149;-72
2023/09/20 09:20:21;;;;;;;10.98;2.90;;;18.30;99.90;;;;;;4959689;28;20050;-73
2023/09/20 09:22:48;;;;;;;12.55;3.30;;;18.30;99.90;;;;;;4912977;28;20047;-72
2023/09/20 09:25:20;;;;;;;12.57;3.10;;;18.20;99.90;;;;;;4933684;28;20544;-73
2023/09/20 09:27:46;;;;;;;13.75;3.75;;;18.20;99.90;;;;;;4911451;28;20536;-73
2023/09/20 09:30:16;;;;;;;10.35;3.28;;;18.10;99.90;;;;;;4949369;28;20058;-73
2023/09/20 09:32:45;;;;;;;10.48;3.47;;;18.10;99.90;;;;;;4893522;28;20052;-72
2023/09/20 09:35:12;;;;;;;9.52;3.13;;;18.10;99.90;;;;;;4926276;28;20054;-73
2023/09/20 09:37:41;;;;;;;10.93;3.05;;;18.10;99.90;;;;;;4912726;28;20047;-73
2023/09/20 09:40:09;;;;;;;9.68;3.20;;;18.20;99.90;;;;;;4948834;28;20429;-73
2023/09/20 09:42:36;;;;;;;10.85;3.40;;;18.20;99.90;;;;;;4931044;28;20039;-75
2023/09/20 09:45:02;;;;;;;8.55;2.67;;;18.30;99.90;;;;;;4928509;28;20043;-74
2023/09/20 09:47:30;;;;;;;11.13;3.08;;;18.50;99.90;;;;;;4948484;28;20062;-72
2023/09/20 09:49:59;;;;;;;10.68;3.00;;;18.60;99.90;;;;;;4917159;28;20055;-71
2023/09/20 09:52:27;;;;;;;9.40;3.10;;;18.60;99.90;;;;;;4929097;28;20040;-73
2023/09/20 09:54:54;;;;;;;10.85;2.83;;;18.70;99.90;;;;;;4891682;28;140022;-73
2023/09/20 09:57:21;;;;;;;9.85;2.90;;;18.90;99.90;;;;;;4942935;28;20055;-72
2023/09/20 09:59:49;;;;;;;9.35;2.92;;;18.90;99.90;;;;;;4891935;28;20055;-71
2023/09/20 10:02:17;;;;;;;10.65;2.90;;;18.90;99.90;;;;;;4943889;28;20051;-72
2023/09/20 10:04:59;;;;;;;10.65;2.80;;;18.90;99.90;;;;;;4895751;28;20078;-73
2023/09/20 10:07:34;;;;;;;8.30;2.35;;;18.90;99.90;;;;;;4945978;28;20081;-73
2023/09/20 10:10:12;;;;;;;8.65;2.50;;;18.90;99.90;;;;;;4902893;28;20061;-73
2023/09/20 10:12:46;;;;;;;11.75;2.95;;;18.90;99.90;;;;;;4912964;28;20534;-73
2023/09/20 10:15:14;;;;;;;8.27;2.47;;;19.00;99.90;;;;;;4945078;28;20506;-75
2023/09/20 10:17:59;;;;;;;10.93;2.67;;;19.00;99.90;;;;;;4907949;28;20063;-71
2023/09/20 10:20:57;;;;;;;9.38;2.53;;;19.00;99.90;;;;;;4955044;28;20050;-72
2023/09/20 10:23:25;;;;;;;11.90;2.50;;;19.10;99.90;;;;;;4917756;28;20078;-73
2023/09/20 10:25:55;;;;;;;9.75;2.45;;;19.10;99.90;;;;;;4933138;28;20063;-72
2023/09/20 10:28:24;;;;;;;9.77;2.55;;;19.00;99.90;;;;;;4913824;28;20051;-76
2023/09/20 10:31:03;;;;;;;7.55;2.03;;;19.00;99.90;;;;;;4946408;28;20055;-73
2023/09/20 10:33:45;;;;;;;7.80;2.15;;;19.00;99.90;;;;;;4895946;28;87899;-73
2023/09/20 10:36:13;;;;;;;9.95;2.70;;;19.00;99.90;;;;;;4944309;28;20059;-72
2023/09/20 10:38:44;;;;;;;9.00;2.20;;;19.00;99.90;;;;;;4912981;28;20055;-72
2023/09/20 10:41:12;;;;;;;9.63;2.17;;;18.90;99.90;;;;;;4952148;28;20141;-72
2023/09/20 10:43:38;;;;;;;9.18;2.05;;;18.90;99.90;;;;;;4908236;28;20060;-70
2023/09/20 10:46:14;;;;;;;10.35;1.98;;;18.90;99.90;;;;;;4954795;28;20047;-71
2023/09/20 10:48:43;;;;;;;8.45;1.98;;;18.90;99.90;;;;;;4929094;28;20058;-74
2023/09/20 10:51:10;;;;;;;9.23;2.10;;;18.90;99.90;;;;;;4975958;28;20030;-71
2023/09/20 10:53:45;;;;;;;7.53;1.90;;;19.00;99.90;;;;;;4904013;28;167630;-73
2023/09/20 10:56:43;;;;;;;9.98;2.35;;;19.00;99.90;;;;;;4936322;28;20058;-73
2023/09/20 10:59:16;;;;;;;10.77;2.03;;;18.90;99.90;;;;;;4903480;28;20043;-72
2023/09/20 11:01:53;;;;;;;8.35;1.80;;;19.00;99.90;;;;;;4945756;28;20063;-71
2023/09/20 11:04:19;;;;;;;7.65;2.10;;;18.90;99.90;;;;;;4896353;28;20059;-72
2023/09/20 11:06:48;;;;;;;7.93;2.13;;;19.00;99.90;;;;;;4939436;28;20055;-72
2023/09/20 11:09:15;;;;;;;9.10;2.03;;;19.00;99.90;;;;;;4919662;28;20051;-71
2023/09/20 11:11:43;;;;;;;10.27;2.35;;;19.00;99.90;;;;;;4952307;28;20224;-71
2023/09/20 11:14:14;;;;;;;8.65;2.15;;;19.00;99.90;;;;;;4921400;28;20497;-73
2023/09/20 11:16:43;;;;;;;9.23;2.15;;;18.90;99.90;;;;;;4928547;28;20050;-71
2023/09/20 11:19:11;;;;;;;10.20;2.22;;;19.00;99.90;;;;;;4925683;28;20055;-72
2023/09/20 11:21:40;;;;;;;8.48;2.13;;;19.10;99.90;;;;;;4954483;28;20055;-74
2023/09/20 11:24:11;;;;;;;8.65;2.20;;;19.10;99.90;;;;;;4895778;28;20055;-70
2023/09/20 11:26:43;;;;;;;8.43;2.08;;;19.20;99.90;;;;;;4949847;28;20059;-71
2023/09/20 11:29:10;;;;;;;8.82;2.00;;;19.20;99.90;;;;;;4913037;28;20453;-73
2023/09/20 11:31:37;;;;;;;9.60;2.00;;;19.50;99.90;;;;;;4951551;28;20063;-73
2023/09/20 11:34:04;;;;;;;8.15;2.30;;;19.60;99.90;;;;;;4922066;28;20039;-72
2023/09/20 11:36:40;;;;;;;9.48;2.20;;;19.70;99.90;;;;;;4954988;28;20688;-71
2023/09/20 11:39:06;;;;;;;9.70;2.00;;;19.60;99.90;;;;;;4914932;28;20426;-71
2023/09/20 11:41:33;;;;;;;7.75;1.98;;;19.60;99.90;;;;;;4950500;28;20144;-69
2023/09/20 11:44:07;;;;;;;8.50;2.08;;;19.60;99.90;;;;;;4909339;28;20051;-70
2023/09/20 11:46:34;;;;;;;7.47;1.92;;;19.80;99.90;;;;;;4960436;28;20059;-71
2023/09/20 11:49:02;;;;;;;9.55;2.55;;;20.00;99.90;;;;;;4913954;28;20047;-72
2023/09/20 11:51:29;;;;;;;9.23;2.00;;;20.30;99.90;;;;;;4946902;28;20050;-72
2023/09/20 11:53:55;;;;;;;8.68;2.20;;;20.50;99.90;;;;;;4889522;28;235553;-71
2023/09/20 11:56:31;;;;;;;9.73;2.67;;;20.70;99.90;;;;;;4949152;28;20046;-72
2023/09/20 11:59:01;;;;;;;6.85;1.90;;;20.70;99.90;;;;;;4898284;28;20069;-71
2023/09/20 12:01:33;;;;;;;9.90;2.30;;;20.50;99.90;;;;;;4949334;28;20051;-72
2023/09/20 12:04:03;;;;;;;7.53;1.85;;;20.70;99.90;;;;;;4914490;28;20544;-71
2023/09/20 12:06:31;;;;;;;8.82;2.10;;;21.10;99.90;;;;;;4947675;28;20077;-72
2023/09/20 12:09:00;;;;;;;8.05;2.03;;;21.30;99.90;;;;;;4922869;28;20042;-70
2023/09/20 12:11:26;;;;;;;8.40;2.17;;;21.70;99.90;;;;;;4955785;28;20529;-71
2023/09/20 12:13:52;;;;;;;9.82;2.55;;;21.90;99.90;;;;;;4912196;28;20054;-69
2023/09/20 12:16:18;;;;;;;8.50;2.40;;;22.00;99.90;;;;;;4947307;28;20059;-72
2023/09/20 12:18:45;;;;;;;9.93;2.30;;;21.70;99.90;;;;;;4930093;28;20050;-68
2023/09/20 12:21:12;;;;;;;9.70;2.50;;;21.40;99.90;;;;;;4954245;28;20059;-69
2023/09/20 12:23:39;;;;;;;9.50;2.35;;;21.50;99.90;;;;;;4901572;28;20114;-70
2023/09/20 12:26:06;;;;;;;8.07;2.25;;;21.70;99.90;;;;;;4942140;28;20051;-71
2023/09/20 12:28:32;;;;;;;8.30;2.60;;;22.00;99.90;;;;;;4908511;28;20537;-69
2023/09/20 12:30:58;;;;;;;8.65;2.65;;;21.90;99.90;;;;;;4947429;28;20039;-71
2023/09/20 12:33:25;;;;;;;9.90;2.78;;;21.80;99.90;;;;;;4916361;28;20043;-70
2023/09/20 12:35:55;;;;;;;9.25;2.90;;;21.70;99.90;;;;;;4955457;28;20055;-72
2023/09/20 12:38:22;;;;;;;12.30;2.42;;;21.90;99.90;;;;;;4911401;28;20058;-70
2023/09/20 12:40:49;;;;;;;10.32;2.58;;;21.80;99.90;;;;;;4954563;28;20059;-71
2023/09/20 12:43:18;;;;;;;10.43;2.75;;;21.90;99.90;;;;;;4922691;28;20050;-70
2023/09/20 12:45:44;;;;;;;10.40;2.63;;;22.50;99.90;;;;;;4946787;28;20446;-71
2023/09/20 12:48:14;;;;;;;10.88;2.80;;;23.40;99.90;;;;;;4910587;28;20042;-72
2023/09/20 12:50:41;;;;;;;10.52;2.47;;;23.80;99.50;;;;;;4944750;28;20039;-68
2023/09/20 12:53:08;;;;;;;10.20;2.80;;;23.80;99.50;;;;;;4894284;28;144665;-72
2023/09/20 12:55:39;;;;;;;7.85;2.63;;;23.70;99.90;;;;;;4943570;28;20062;-71
2023/09/20 12:58:06;;;;;;;10.50;2.90;;;23.60;99.50;;;;;;4910850;28;21425;-73
2023/09/20 13:00:37;;;;;;;8.73;2.75;;;23.20;99.90;;;;;;4956384;28;20058;-73
2023/09/20 13:03:06;;;;;;;10.32;2.85;;;22.80;99.90;;;;;;4927468;28;20095;-71
2023/09/20 13:05:33;;;;;;;9.77;3.03;;;22.10;99.90;;;;;;4956846;28;20055;-74
2023/09/20 13:07:59;;;;;;;10.45;3.00;;;21.80;99.90;;;;;;4904964;28;20113;-72
2023/09/20 13:10:31;;;;;;;11.10;3.13;;;21.60;99.90;;;;;;4954891;28;20134;-73
2023/09/20 13:12:57;;;;;;;8.68;2.75;;;21.70;99.90;;;;;;4912660;28;20093;-73
2023/09/20 13:15:23;;;;;;;10.30;2.95;;;21.80;99.90;;;;;;4943126;28;20055;-71
2023/09/20 13:17:51;;;;;;;9.75;2.50;;;22.10;99.90;;;;;;4911415;28;20066;-72
2023/09/20 13:20:18;;;;;;;10.27;2.90;;;22.10;99.90;;;;;;4940534;28;20047;-72
2023/09/20 13:22:52;;;;;;;9.93;2.80;;;22.10;99.90;;;;;;4916411;28;20059;-70
2023/09/20 13:25:19;;;;;;;13.63;2.88;;;22.40;99.90;;;;;;4940600;28;206501;-68